CheckWX is a tool to help pilots better visualize weather data.  It is not intended as a substitute for an official pre-flight weather briefing.

17:34:19 UTC

LZTT TAF
Poprad-Tatry Airport
Poprad, Slovakia (Slovak Republic)
TAF AMD LZTT 181425Z 1814/1912 06010KT 9999 SCT045 PROB40 TEMPO 1814/1902 27015KT 7000 TSRA SCT040CB BKN060 BECMG 1818/1820 25004KT BECMG 1906/1908 14006KT TEMPO 1909/1912 SCT040TCU SCT050 PROB40 TEMPO 1910/1912 28010KT 5000 TSRA SCT045CB BKN050

Jun-18@
14:00 UTC

Jun-18 @ 14:00 UTC

Jun-18@
18:00 UTC

Jun-18 @ 18:00 UTC

TAF AMD LZTT 181425Z 1814/1912 06010KT 9999 SCT045
Wind
  • 060° at 10 KTS
Cloud Levels
  • Scattered at 4,500' AGL

Jun-18@
14:00 UTC

Jun-18 @ 14:00 UTC

Jun-19@
02:00 UTC

Jun-19 @ 02:00 UTC

PROB40 TEMPO 1814/1902 27015KT 7000 TSRA SCT040CB BKN060

Temporary - 40% Likelihood

Temporary - 40% Likelihood during this time.

Wind
  • 270° at 15 KTS
Conditions
Thunderstorm, Rain
Cloud Levels
  • Scattered at 4,000' AGL
  • Broken at 6,000' AGL

Jun-18@
18:00 UTC

Jun-18 @ 18:00 UTC

Jun-19@
06:00 UTC

Jun-19 @ 06:00 UTC

BECMG 1818/1820 25004KT

Becoming

Becoming Conditions expected by Tue, Jun 18, 2019 @ 20:00 UTC

Wind
  • 250° at 4 KTS
Cloud Levels
  • Scattered at 4,500' AGL

Jun-19@
06:00 UTC

Jun-19 @ 06:00 UTC

Jun-19@
12:00 UTC

Jun-19 @ 12:00 UTC

BECMG 1906/1908 14006KT

Becoming

Becoming Conditions expected by Wed, Jun 19, 2019 @ 08:00 UTC

Wind
  • 140° at 6 KTS
Cloud Levels
  • Scattered at 4,500' AGL

Jun-19@
09:00 UTC

Jun-19 @ 09:00 UTC

Jun-19@
12:00 UTC

Jun-19 @ 12:00 UTC

TEMPO 1909/1912 SCT040TCU SCT050

Temporary

Temporary Changes expected for less than half the time period

Cloud Levels
  • Scattered at 4,000' AGL
  • Scattered at 5,000' AGL

Jun-19@
10:00 UTC

Jun-19 @ 10:00 UTC

Jun-19@
12:00 UTC

Jun-19 @ 12:00 UTC

PROB40 TEMPO 1910/1912 28010KT 5000 TSRA SCT045CB BKN050

Temporary - 40% Likelihood

Temporary - 40% Likelihood during this time.

Wind
  • 280° at 10 KTS
Conditions
Thunderstorm, Rain
Cloud Levels
  • Scattered at 4,500' AGL
  • Broken at 5,000' AGL